sensor_id;sensor_type;location;lat;lon;timestamp;temperature;humidity
39875;DHT22;25547;52.530;13.194;2022-11-21T00:00:51;-0.10;99.90
39875;DHT22;25547;52.530;13.194;2022-11-21T00:03:20;-0.20;99.90
39875;DHT22;25547;52.530;13.194;2022-11-21T00:05:47;-0.10;99.90
39875;DHT22;25547;52.530;13.194;2022-11-21T00:08:18;-0.10;99.90
39875;DHT22;25547;52.530;13.194;2022-11-21T00:10:47;-0.10;99.90
39875;DHT22;25547;52.530;13.194;2022-11-21T00:13:19;0.00;99.90
39875;DHT22;25547;52.530;13.194;2022-11-21T00:15:45;0.10;99.90
39875;DHT22;25547;52.530;13.194;2022-11-21T00:18:13;0.10;99.90
39875;DHT22;25547;52.530;13.194;2022-11-21T00:20:42;0.10;99.90
39875;DHT22;25547;52.530;13.194;2022-11-21T00:23:10;0.20;99.90
39875;DHT22;25547;52.530;13.194;2022-11-21T00:25:36;0.10;99.90
39875;DHT22;25547;52.530;13.194;2022-11-21T00:28:03;0.20;99.90
39875;DHT22;25547;52.530;13.194;2022-11-21T00:30:29;0.30;99.90
39875;DHT22;25547;52.530;13.194;2022-11-21T00:32:54;0.30;99.90
39875;DHT22;25547;52.530;13.194;2022-11-21T00:35:22;0.40;99.90
39875;DHT22;25547;52.530;13.194;2022-11-21T00:37:48;0.50;99.90
39875;DHT22;25547;52.530;13.194;2022-11-21T00:40:15;0.50;99.90
39875;DHT22;25547;52.530;13.194;2022-11-21T00:42:41;0.60;99.90
39875;DHT22;25547;52.530;13.194;2022-11-21T00:45:07;0.60;99.90
39875;DHT22;25547;52.530;13.194;2022-11-21T00:47:33;0.60;99.90
39875;DHT22;25547;52.530;13.194;2022-11-21T00:50:03;0.70;99.90
39875;DHT22;25547;52.530;13.194;2022-11-21T00:52:31;0.70;99.90
39875;DHT22;25547;52.530;13.194;2022-11-21T00:54:56;0.60;99.90
39875;DHT22;25547;52.530;13.194;2022-11-21T00:57:24;0.60;99.90
39875;DHT22;25547;52.530;13.194;2022-11-21T00:59:50;0.60;99.90
39875;DHT22;25547;52.530;13.194;2022-11-21T01:02:16;0.70;99.90
39875;DHT22;25547;52.530;13.194;2022-11-21T01:04:41;0.60;99.90
39875;DHT22;25547;52.530;13.194;2022-11-21T01:07:07;0.50;99.90
39875;DHT22;25547;52.530;13.194;2022-11-21T01:09:32;0.30;99.90
39875;DHT22;25547;52.530;13.194;2022-11-21T01:12:00;0.40;99.90
39875;DHT22;25547;52.530;13.194;2022-11-21T01:14:26;0.60;99.90
39875;DHT22;25547;52.530;13.194;2022-11-21T01:16:52;0.70;99.90
39875;DHT22;25547;52.530;13.194;2022-11-21T01:19:17;0.70;99.90
39875;DHT22;25547;52.530;13.194;2022-11-21T01:21:43;0.70;99.90
39875;DHT22;25547;52.530;13.194;2022-11-21T01:24:10;0.50;99.90
39875;DHT22;25547;52.530;13.194;2022-11-21T01:26:36;0.40;99.90
39875;DHT22;25547;52.530;13.194;2022-11-21T01:29:03;0.20;99.90
39875;DHT22;25547;52.530;13.194;2022-11-21T01:31:31;0.20;99.90
39875;DHT22;25547;52.530;13.194;2022-11-21T01:33:58;0.20;99.90
39875;DHT22;25547;52.530;13.194;2022-11-21T01:36:29;0.00;99.90
39875;DHT22;25547;52.530;13.194;2022-11-21T01:38:57;-0.10;99.90
39875;DHT22;25547;52.530;13.194;2022-11-21T01:41:37;-0.10;99.90
39875;DHT22;25547;52.530;13.194;2022-11-21T01:44:17;-0.20;99.90
39875;DHT22;25547;52.530;13.194;2022-11-21T01:46:44;-0.20;99.90
39875;DHT22;25547;52.530;13.194;2022-11-21T01:49:10;-0.30;99.90
39875;DHT22;25547;52.530;13.194;2022-11-21T01:54:14;-0.20;99.90
39875;DHT22;25547;52.530;13.194;2022-11-21T01:56:52;-0.20;99.90
39875;DHT22;25547;52.530;13.194;2022-11-21T01:59:28;-0.10;99.90
39875;DHT22;25547;52.530;13.194;2022-11-21T02:01:54;-0.10;99.90
39875;DHT22;25547;52.530;13.194;2022-11-21T02:04:24;-0.20;99.90
39875;DHT22;25547;52.530;13.194;2022-11-21T02:06:52;-0.30;99.90
39875;DHT22;25547;52.530;13.194;2022-11-21T02:09:20;-0.20;99.90
39875;DHT22;25547;52.530;13.194;2022-11-21T02:12:00;-0.10;99.90
39875;DHT22;25547;52.530;13.194;2022-11-21T02:14:29;-0.30;99.90
39875;DHT22;25547;52.530;13.194;2022-11-21T02:17:02;-0.20;99.90
39875;DHT22;25547;52.530;13.194;2022-11-21T02:19:56;-0.30;99.90
39875;DHT22;25547;52.530;13.194;2022-11-21T02:22:41;-0.30;99.90
39875;DHT22;25547;52.530;13.194;2022-11-21T02:25:28;-0.20;99.90
39875;DHT22;25547;52.530;13.194;2022-11-21T02:28:00;-0.30;99.90
39875;DHT22;25547;52.530;13.194;2022-11-21T02:30:27;-0.20;99.90
39875;DHT22;25547;52.530;13.194;2022-11-21T02:32:54;-0.20;99.90
39875;DHT22;25547;52.530;13.194;2022-11-21T02:35:22;-0.10;99.90
39875;DHT22;25547;52.530;13.194;2022-11-21T02:37:57;-0.10;99.90
39875;DHT22;25547;52.530;13.194;2022-11-21T02:40:28;-0.10;99.90
39875;DHT22;25547;52.530;13.194;2022-11-21T02:43:20;-0.10;99.90
39875;DHT22;25547;52.530;13.194;2022-11-21T02:45:50;-0.20;99.90
39875;DHT22;25547;52.530;13.194;2022-11-21T02:48:15;-0.20;99.90
39875;DHT22;25547;52.530;13.194;2022-11-21T02:50:46;-0.20;99.90
39875;DHT22;25547;52.530;13.194;2022-11-21T02:53:14;-0.20;99.90
39875;DHT22;25547;52.530;13.194;2022-11-21T02:55:41;-0.20;99.90
39875;DHT22;25547;52.530;13.194;2022-11-21T02:58:07;-0.20;99.90
39875;DHT22;25547;52.530;13.194;2022-11-21T03:00:34;-0.20;99.90
39875;DHT22;25547;52.530;13.194;2022-11-21T03:03:01;0.00;99.90
39875;DHT22;25547;52.530;13.194;2022-11-21T03:05:26;0.00;99.90
39875;DHT22;25547;52.530;13.194;2022-11-21T03:07:52;0.00;99.90
39875;DHT22;25547;52.530;13.194;2022-11-21T03:10:18;0.00;99.90
39875;DHT22;25547;52.530;13.194;2022-11-21T03:12:43;0.10;99.90
39875;DHT22;25547;52.530;13.194;2022-11-21T03:15:11;0.10;99.90
39875;DHT22;25547;52.530;13.194;2022-11-21T03:17:41;0.10;99.90
39875;DHT22;25547;52.530;13.194;2022-11-21T03:20:07;0.20;99.90
39875;DHT22;25547;52.530;13.194;2022-11-21T03:22:34;0.20;99.90
39875;DHT22;25547;52.530;13.194;2022-11-21T03:24:59;0.20;99.90
39875;DHT22;25547;52.530;13.194;2022-11-21T03:27:25;0.20;99.90
39875;DHT22;25547;52.530;13.194;2022-11-21T03:29:53;0.30;99.90
39875;DHT22;25547;52.530;13.194;2022-11-21T03:32:24;0.40;99.90
39875;DHT22;25547;52.530;13.194;2022-11-21T03:34:49;0.50;99.90
39875;DHT22;25547;52.530;13.194;2022-11-21T03:37:15;0.60;99.90
39875;DHT22;25547;52.530;13.194;2022-11-21T03:39:41;0.60;99.90
39875;DHT22;25547;52.530;13.194;2022-11-21T03:42:07;0.70;99.90
39875;DHT22;25547;52.530;13.194;2022-11-21T03:44:32;0.60;99.90
39875;DHT22;25547;52.530;13.194;2022-11-21T03:46:58;0.60;99.90
39875;DHT22;25547;52.530;13.194;2022-11-21T03:49:26;0.50;99.90
39875;DHT22;25547;52.530;13.194;2022-11-21T03:51:56;0.50;99.90
39875;DHT22;25547;52.530;13.194;2022-11-21T03:54:24;0.40;99.90
39875;DHT22;25547;52.530;13.194;2022-11-21T03:56:52;0.30;99.90
39875;DHT22;25547;52.530;13.194;2022-11-21T03:59:17;0.40;99.90
39875;DHT22;25547;52.530;13.194;2022-11-21T04:01:45;0.30;99.90
39875;DHT22;25547;52.530;13.194;2022-11-21T04:04:11;0.30;99.90
39875;DHT22;25547;52.530;13.194;2022-11-21T04:06:36;0.30;99.90
39875;DHT22;25547;52.530;13.194;2022-11-21T04:09:02;0.30;99.90
39875;DHT22;25547;52.530;13.194;2022-11-21T04:11:28;0.20;99.90
39875;DHT22;25547;52.530;13.194;2022-11-21T04:13:53;0.20;99.90
39875;DHT22;25547;52.530;13.194;2022-11-21T04:16:19;0.20;99.90
39875;DHT22;25547;52.530;13.194;2022-11-21T04:18:45;0.20;99.90
39875;DHT22;25547;52.530;13.194;2022-11-21T04:21:11;0.20;99.90
39875;DHT22;25547;52.530;13.194;2022-11-21T04:23:39;0.20;99.90
39875;DHT22;25547;52.530;13.194;2022-11-21T04:26:05;0.30;99.90
39875;DHT22;25547;52.530;13.194;2022-11-21T04:28:30;0.30;99.90
39875;DHT22;25547;52.530;13.194;2022-11-21T04:31:02;0.30;99.90
39875;DHT22;25547;52.530;13.194;2022-11-21T04:33:28;0.30;99.90
39875;DHT22;25547;52.530;13.194;2022-11-21T04:35:56;0.30;99.90
39875;DHT22;25547;52.530;13.194;2022-11-21T04:38:21;0.30;99.90
39875;DHT22;25547;52.530;13.194;2022-11-21T04:40:49;0.30;99.90
39875;DHT22;25547;52.530;13.194;2022-11-21T04:43:15;0.20;99.90
39875;DHT22;25547;52.530;13.194;2022-11-21T04:45:40;0.30;99.90
39875;DHT22;25547;52.530;13.194;2022-11-21T04:48:09;0.30;99.90
39875;DHT22;25547;52.530;13.194;2022-11-21T04:50:34;0.30;99.90
39875;DHT22;25547;52.530;13.194;2022-11-21T04:53:02;0.30;99.90
39875;DHT22;25547;52.530;13.194;2022-11-21T04:55:30;0.30;99.90
39875;DHT22;25547;52.530;13.194;2022-11-21T04:57:58;0.30;99.90
39875;DHT22;25547;52.530;13.194;2022-11-21T05:00:24;0.40;99.90
39875;DHT22;25547;52.530;13.194;2022-11-21T05:02:50;0.40;99.90
39875;DHT22;25547;52.530;13.194;2022-11-21T05:05:18;0.50;99.90
39875;DHT22;25547;52.530;13.194;2022-11-21T05:07:44;0.50;99.90
39875;DHT22;25547;52.530;13.194;2022-11-21T05:10:10;0.60;99.90
39875;DHT22;25547;52.530;13.194;2022-11-21T05:12:40;0.60;99.90
39875;DHT22;25547;52.530;13.194;2022-11-21T05:15:27;0.60;99.90
39875;DHT22;25547;52.530;13.194;2022-11-21T05:17:58;0.70;99.90
39875;DHT22;25547;52.530;13.194;2022-11-21T05:20:24;0.70;99.90
39875;DHT22;25547;52.530;13.194;2022-11-21T05:22:52;0.70;99.90
39875;DHT22;25547;52.530;13.194;2022-11-21T05:25:18;0.70;99.90
39875;DHT22;25547;52.530;13.194;2022-11-21T05:27:46;0.70;99.90
39875;DHT22;25547;52.530;13.194;2022-11-21T05:30:12;0.70;99.90
39875;DHT22;25547;52.530;13.194;2022-11-21T05:32:38;0.70;99.90
39875;DHT22;25547;52.530;13.194;2022-11-21T05:35:06;0.70;99.90
39875;DHT22;25547;52.530;13.194;2022-11-21T05:37:32;0.70;99.90
39875;DHT22;25547;52.530;13.194;2022-11-21T05:39:58;0.80;99.90
39875;DHT22;25547;52.530;13.194;2022-11-21T05:42:24;0.90;99.90
39875;DHT22;25547;52.530;13.194;2022-11-21T05:45:08;0.90;99.90
39875;DHT22;25547;52.530;13.194;2022-11-21T05:47:34;0.80;99.90
39875;DHT22;25547;52.530;13.194;2022-11-21T05:49:59;0.80;99.90
39875;DHT22;25547;52.530;13.194;2022-11-21T05:52:27;0.70;99.90
39875;DHT22;25547;52.530;13.194;2022-11-21T05:54:52;0.70;99.90
39875;DHT22;25547;52.530;13.194;2022-11-21T05:57:20;0.70;99.90
39875;DHT22;25547;52.530;13.194;2022-11-21T05:59:48;0.70;99.90
39875;DHT22;25547;52.530;13.194;2022-11-21T06:02:13;0.60;99.90
39875;DHT22;25547;52.530;13.194;2022-11-21T06:05:00;0.70;99.90
39875;DHT22;25547;52.530;13.194;2022-11-21T06:07:25;0.70;99.90
39875;DHT22;25547;52.530;13.194;2022-11-21T06:09:51;0.70;99.90
39875;DHT22;25547;52.530;13.194;2022-11-21T06:12:19;0.70;99.90
39875;DHT22;25547;52.530;13.194;2022-11-21T06:14:44;0.70;99.90
39875;DHT22;25547;52.530;13.194;2022-11-21T06:17:11;0.70;99.90
39875;DHT22;25547;52.530;13.194;2022-11-21T06:19:36;0.60;99.90
39875;DHT22;25547;52.530;13.194;2022-11-21T06:22:02;0.70;99.90
39875;DHT22;25547;52.530;13.194;2022-11-21T06:24:28;0.70;99.90
39875;DHT22;25547;52.530;13.194;2022-11-21T06:26:53;0.60;99.90
39875;DHT22;25547;52.530;13.194;2022-11-21T06:29:19;0.60;99.90
39875;DHT22;25547;52.530;13.194;2022-11-21T06:31:48;0.70;99.90
39875;DHT22;25547;52.530;13.194;2022-11-21T06:34:15;0.60;99.90
39875;DHT22;25547;52.530;13.194;2022-11-21T06:36:43;0.60;99.90
39875;DHT22;25547;52.530;13.194;2022-11-21T06:39:09;0.50;99.90
39875;DHT22;25547;52.530;13.194;2022-11-21T06:41:39;0.60;99.90
39875;DHT22;25547;52.530;13.194;2022-11-21T06:44:05;0.50;99.90
39875;DHT22;25547;52.530;13.194;2022-11-21T06:46:33;0.50;99.90
39875;DHT22;25547;52.530;13.194;2022-11-21T06:49:01;0.50;99.90
39875;DHT22;25547;52.530;13.194;2022-11-21T06:51:29;0.50;99.90
39875;DHT22;25547;52.530;13.194;2022-11-21T06:53:57;0.50;99.90
39875;DHT22;25547;52.530;13.194;2022-11-21T06:56:28;0.40;99.90
39875;DHT22;25547;52.530;13.194;2022-11-21T06:58:57;0.30;99.90
39875;DHT22;25547;52.530;13.194;2022-11-21T07:01:28;0.30;99.90
39875;DHT22;25547;52.530;13.194;2022-11-21T07:04:00;0.30;99.90
39875;DHT22;25547;52.530;13.194;2022-11-21T07:06:26;0.50;99.90
39875;DHT22;25547;52.530;13.194;2022-11-21T07:08:56;0.60;99.90
39875;DHT22;25547;52.530;13.194;2022-11-21T07:11:24;0.60;99.90
39875;DHT22;25547;52.530;13.194;2022-11-21T07:13:50;0.60;99.90
39875;DHT22;25547;52.530;13.194;2022-11-21T07:16:15;0.50;99.90
39875;DHT22;25547;52.530;13.194;2022-11-21T07:18:46;0.40;99.90
39875;DHT22;25547;52.530;13.194;2022-11-21T07:21:11;0.40;99.90
39875;DHT22;25547;52.530;13.194;2022-11-21T07:23:39;0.40;99.90
39875;DHT22;25547;52.530;13.194;2022-11-21T07:26:06;0.30;99.90
39875;DHT22;25547;52.530;13.194;2022-11-21T07:30:59;0.20;99.90
39875;DHT22;25547;52.530;13.194;2022-11-21T07:33:26;0.30;99.90
39875;DHT22;25547;52.530;13.194;2022-11-21T07:35:54;0.30;99.90
39875;DHT22;25547;52.530;13.194;2022-11-21T07:38:19;0.20;99.90
39875;DHT22;25547;52.530;13.194;2022-11-21T07:40:45;0.10;99.90
39875;DHT22;25547;52.530;13.194;2022-11-21T07:43:11;0.20;99.90
39875;DHT22;25547;52.530;13.194;2022-11-21T07:45:38;0.20;99.90
39875;DHT22;25547;52.530;13.194;2022-11-21T07:48:06;0.20;99.90
39875;DHT22;25547;52.530;13.194;2022-11-21T07:50:32;0.10;99.90
39875;DHT22;25547;52.530;13.194;2022-11-21T07:53:03;0.10;99.90
39875;DHT22;25547;52.530;13.194;2022-11-21T07:55:31;0.20;99.90
39875;DHT22;25547;52.530;13.194;2022-11-21T07:58:04;0.20;99.90
39875;DHT22;25547;52.530;13.194;2022-11-21T08:00:34;0.20;99.90
39875;DHT22;25547;52.530;13.194;2022-11-21T08:03:00;0.20;99.90
39875;DHT22;25547;52.530;13.194;2022-11-21T08:05:28;0.10;99.90
39875;DHT22;25547;52.530;13.194;2022-11-21T08:07:56;0.00;99.90
39875;DHT22;25547;52.530;13.194;2022-11-21T08:10:26;0.00;99.90
39875;DHT22;25547;52.530;13.194;2022-11-21T08:12:54;0.00;99.90
39875;DHT22;25547;52.530;13.194;2022-11-21T08:15:23;0.10;99.90
39875;DHT22;25547;52.530;13.194;2022-11-21T08:17:48;0.10;99.90
39875;DHT22;25547;52.530;13.194;2022-11-21T08:20:16;0.00;99.90
39875;DHT22;25547;52.530;13.194;2022-11-21T08:22:44;-0.10;99.90
39875;DHT22;25547;52.530;13.194;2022-11-21T08:25:10;-0.20;99.90
39875;DHT22;25547;52.530;13.194;2022-11-21T08:27:37;-0.20;99.90
39875;DHT22;25547;52.530;13.194;2022-11-21T08:30:09;-0.20;99.90
39875;DHT22;25547;52.530;13.194;2022-11-21T08:32:35;-0.30;99.90
39875;DHT22;25547;52.530;13.194;2022-11-21T08:35:01;-0.50;99.90
39875;DHT22;25547;52.530;13.194;2022-11-21T08:37:29;-0.40;99.90
39875;DHT22;25547;52.530;13.194;2022-11-21T08:39:55;-0.30;99.90
39875;DHT22;25547;52.530;13.194;2022-11-21T08:42:23;-0.30;99.90
39875;DHT22;25547;52.530;13.194;2022-11-21T08:44:52;-0.40;99.90
39875;DHT22;25547;52.530;13.194;2022-11-21T08:47:17;-0.40;99.90
39875;DHT22;25547;52.530;13.194;2022-11-21T08:49:47;-0.30;99.90
39875;DHT22;25547;52.530;13.194;2022-11-21T08:52:17;-0.30;99.90
39875;DHT22;25547;52.530;13.194;2022-11-21T08:54:43;-0.20;99.90
39875;DHT22;25547;52.530;13.194;2022-11-21T08:57:10;-0.30;99.90
39875;DHT22;25547;52.530;13.194;2022-11-21T08:59:35;-0.20;99.90
39875;DHT22;25547;52.530;13.194;2022-11-21T09:02:03;-0.30;99.90
39875;DHT22;25547;52.530;13.194;2022-11-21T09:04:29;-0.30;99.90
39875;DHT22;25547;52.530;13.194;2022-11-21T09:06:59;-0.30;99.90
39875;DHT22;25547;52.530;13.194;2022-11-21T09:09:30;-0.40;99.90
39875;DHT22;25547;52.530;13.194;2022-11-21T09:12:00;-0.40;99.90
39875;DHT22;25547;52.530;13.194;2022-11-21T09:14:26;-0.20;99.90
39875;DHT22;25547;52.530;13.194;2022-11-21T09:17:12;-0.20;99.90
39875;DHT22;25547;52.530;13.194;2022-11-21T09:20:07;-0.10;99.90
39875;DHT22;25547;52.530;13.194;2022-11-21T09:22:36;-0.10;99.90
39875;DHT22;25547;52.530;13.194;2022-11-21T09:25:04;0.00;99.90
39875;DHT22;25547;52.530;13.194;2022-11-21T09:27:30;-0.20;99.90
39875;DHT22;25547;52.530;13.194;2022-11-21T09:29:56;-0.20;99.90
39875;DHT22;25547;52.530;13.194;2022-11-21T09:32:24;0.00;99.90
39875;DHT22;25547;52.530;13.194;2022-11-21T09:34:50;-0.10;99.90
39875;DHT22;25547;52.530;13.194;2022-11-21T09:37:17;0.10;99.90
39875;DHT22;25547;52.530;13.194;2022-11-21T09:39:43;0.10;99.90
39875;DHT22;25547;52.530;13.194;2022-11-21T09:50:00;0.10;99.90
39875;DHT22;25547;52.530;13.194;2022-11-21T09:52:57;0.10;99.90
39875;DHT22;25547;52.530;13.194;2022-11-21T09:58:04;0.10;99.90
39875;DHT22;25547;52.530;13.194;2022-11-21T10:00:33;0.20;99.90
39875;DHT22;25547;52.530;13.194;2022-11-21T10:03:01;0.30;99.90
39875;DHT22;25547;52.530;13.194;2022-11-21T10:05:39;0.30;99.90
39875;DHT22;25547;52.530;13.194;2022-11-21T10:10:53;0.20;99.90
39875;DHT22;25547;52.530;13.194;2022-11-21T10:19:40;0.40;99.90
39875;DHT22;25547;52.530;13.194;2022-11-21T10:25:38;0.40;99.90
39875;DHT22;25547;52.530;13.194;2022-11-21T10:30:43;0.60;99.90
39875;DHT22;25547;52.530;13.194;2022-11-21T10:33:20;0.60;99.90
39875;DHT22;25547;52.530;13.194;2022-11-21T10:35:58;0.60;99.90
39875;DHT22;25547;52.530;13.194;2022-11-21T10:38:30;0.50;99.90
39875;DHT22;25547;52.530;13.194;2022-11-21T10:41:23;0.40;99.90
39875;DHT22;25547;52.530;13.194;2022-11-21T10:46:59;0.40;99.90
39875;DHT22;25547;52.530;13.194;2022-11-21T10:49:29;0.40;99.90
39875;DHT22;25547;52.530;13.194;2022-11-21T10:54:32;0.20;99.90
39875;DHT22;25547;52.530;13.194;2022-11-21T10:59:37;0.40;99.90
39875;DHT22;25547;52.530;13.194;2022-11-21T11:04:39;0.60;99.90
39875;DHT22;25547;52.530;13.194;2022-11-21T11:07:32;0.70;99.90
39875;DHT22;25547;52.530;13.194;2022-11-21T11:10:15;0.60;99.90
39875;DHT22;25547;52.530;13.194;2022-11-21T11:12:50;0.60;99.90
39875;DHT22;25547;52.530;13.194;2022-11-21T11:15:38;0.40;99.90
39875;DHT22;25547;52.530;13.194;2022-11-21T11:18:20;0.50;99.90
39875;DHT22;25547;52.530;13.194;2022-11-21T11:20:49;0.30;99.90
39875;DHT22;25547;52.530;13.194;2022-11-21T11:23:25;0.40;99.90
39875;DHT22;25547;52.530;13.194;2022-11-21T11:25:56;0.50;99.90
39875;DHT22;25547;52.530;13.194;2022-11-21T11:28:23;0.60;99.90
39875;DHT22;25547;52.530;13.194;2022-11-21T11:30:53;0.50;99.90
39875;DHT22;25547;52.530;13.194;2022-11-21T11:33:52;0.60;99.90
39875;DHT22;25547;52.530;13.194;2022-11-21T11:36:30;0.60;99.90
39875;DHT22;25547;52.530;13.194;2022-11-21T11:38:59;0.70;99.90
39875;DHT22;25547;52.530;13.194;2022-11-21T11:47:57;0.70;99.90
39875;DHT22;25547;52.530;13.194;2022-11-21T11:50:35;1.00;99.90
39875;DHT22;25547;52.530;13.194;2022-11-21T11:53:17;0.90;99.90
39875;DHT22;25547;52.530;13.194;2022-11-21T12:03:59;0.60;99.90
39875;DHT22;25547;52.530;13.194;2022-11-21T12:07:32;0.60;99.90
39875;DHT22;25547;52.530;13.194;2022-11-21T12:23:17;0.60;99.90
39875;DHT22;25547;52.530;13.194;2022-11-21T12:26:08;0.70;99.90
39875;DHT22;25547;52.530;13.194;2022-11-21T12:48:14;0.80;99.90
39875;DHT22;25547;52.530;13.194;2022-11-21T13:05:30;0.80;99.90
39875;DHT22;25547;52.530;13.194;2022-11-21T13:08:10;0.60;99.90
39875;DHT22;25547;52.530;13.194;2022-11-21T13:10:45;0.70;99.90
39875;DHT22;25547;52.530;13.194;2022-11-21T13:13:22;0.70;99.90
39875;DHT22;25547;52.530;13.194;2022-11-21T13:15:59;0.60;99.90
39875;DHT22;25547;52.530;13.194;2022-11-21T13:18:34;0.60;99.90
39875;DHT22;25547;52.530;13.194;2022-11-21T13:21:04;0.80;99.90
39875;DHT22;25547;52.530;13.194;2022-11-21T13:23:35;0.90;99.90
39875;DHT22;25547;52.530;13.194;2022-11-21T13:28:46;1.00;99.90
39875;DHT22;25547;52.530;13.194;2022-11-21T13:31:29;1.00;99.90
39875;DHT22;25547;52.530;13.194;2022-11-21T13:33:56;0.90;99.90
39875;DHT22;25547;52.530;13.194;2022-11-21T13:39:38;0.80;99.90
39875;DHT22;25547;52.530;13.194;2022-11-21T13:47:02;1.00;99.90
39875;DHT22;25547;52.530;13.194;2022-11-21T13:49:52;1.00;99.90
39875;DHT22;25547;52.530;13.194;2022-11-21T13:57:54;1.10;99.90
39875;DHT22;25547;52.530;13.194;2022-11-21T14:08:29;1.10;99.90
39875;DHT22;25547;52.530;13.194;2022-11-21T14:10:56;1.20;99.90
39875;DHT22;25547;52.530;13.194;2022-11-21T14:13:25;1.40;99.90
39875;DHT22;25547;52.530;13.194;2022-11-21T14:16:18;1.40;99.90
39875;DHT22;25547;52.530;13.194;2022-11-21T14:18:46;1.20;99.90
39875;DHT22;25547;52.530;13.194;2022-11-21T14:21:25;0.90;99.90
39875;DHT22;25547;52.530;13.194;2022-11-21T14:23:54;0.70;99.90
39875;DHT22;25547;52.530;13.194;2022-11-21T14:26:23;0.60;99.90
39875;DHT22;25547;52.530;13.194;2022-11-21T14:28:51;0.30;99.90
39875;DHT22;25547;52.530;13.194;2022-11-21T14:31:17;0.40;99.90
39875;DHT22;25547;52.530;13.194;2022-11-21T14:33:46;0.40;99.90
39875;DHT22;25547;52.530;13.194;2022-11-21T14:36:24;0.50;99.90
39875;DHT22;25547;52.530;13.194;2022-11-21T14:38:58;0.30;99.90
39875;DHT22;25547;52.530;13.194;2022-11-21T14:46:28;0.70;99.90
39875;DHT22;25547;52.530;13.194;2022-11-21T14:51:37;0.30;99.90
39875;DHT22;25547;52.530;13.194;2022-11-21T14:54:03;0.30;99.90
39875;DHT22;25547;52.530;13.194;2022-11-21T14:56:33;0.50;99.90
39875;DHT22;25547;52.530;13.194;2022-11-21T14:59:01;0.40;99.90
39875;DHT22;25547;52.530;13.194;2022-11-21T15:01:33;0.30;99.90
39875;DHT22;25547;52.530;13.194;2022-11-21T15:03:59;0.30;99.90
39875;DHT22;25547;52.530;13.194;2022-11-21T15:06:38;0.40;99.90
39875;DHT22;25547;52.530;13.194;2022-11-21T15:09:04;0.20;99.90
39875;DHT22;25547;52.530;13.194;2022-11-21T15:14:10;0.00;99.90
39875;DHT22;25547;52.530;13.194;2022-11-21T15:16:42;-0.10;99.90
39875;DHT22;25547;52.530;13.194;2022-11-21T15:19:24;-0.10;99.90
39875;DHT22;25547;52.530;13.194;2022-11-21T15:21:52;-0.10;99.90
39875;DHT22;25547;52.530;13.194;2022-11-21T15:24:30;0.00;99.90
39875;DHT22;25547;52.530;13.194;2022-11-21T15:26:56;0.10;99.90
39875;DHT22;25547;52.530;13.194;2022-11-21T15:29:24;0.10;99.90
39875;DHT22;25547;52.530;13.194;2022-11-21T15:32:09;0.00;99.90
39875;DHT22;25547;52.530;13.194;2022-11-21T15:34:36;0.10;99.90
39875;DHT22;25547;52.530;13.194;2022-11-21T15:37:15;0.20;99.90
39875;DHT22;25547;52.530;13.194;2022-11-21T15:39:46;0.30;99.90
39875;DHT22;25547;52.530;13.194;2022-11-21T15:45:03;0.20;99.90
39875;DHT22;25547;52.530;13.194;2022-11-21T15:47:43;0.00;99.90
39875;DHT22;25547;52.530;13.194;2022-11-21T15:50:09;-0.20;99.90
39875;DHT22;25547;52.530;13.194;2022-11-21T15:52:54;-0.20;99.90
39875;DHT22;25547;52.530;13.194;2022-11-21T15:55:25;-0.20;99.90
39875;DHT22;25547;52.530;13.194;2022-11-21T15:57:51;-0.20;99.90
39875;DHT22;25547;52.530;13.194;2022-11-21T16:00:18;-0.10;99.90
39875;DHT22;25547;52.530;13.194;2022-11-21T16:02:49;-0.10;99.90
39875;DHT22;25547;52.530;13.194;2022-11-21T16:05:15;-0.10;99.90
39875;DHT22;25547;52.530;13.194;2022-11-21T16:07:43;0.00;99.90
39875;DHT22;25547;52.530;13.194;2022-11-21T16:10:09;0.20;99.90
39875;DHT22;25547;52.530;13.194;2022-11-21T16:12:37;0.30;99.90
39875;DHT22;25547;52.530;13.194;2022-11-21T16:15:05;0.30;99.90
39875;DHT22;25547;52.530;13.194;2022-11-21T16:17:31;0.20;99.90
39875;DHT22;25547;52.530;13.194;2022-11-21T16:19:59;0.10;99.90
39875;DHT22;25547;52.530;13.194;2022-11-21T16:22:25;-0.10;99.90
39875;DHT22;25547;52.530;13.194;2022-11-21T16:24:50;-0.20;99.90
39875;DHT22;25547;52.530;13.194;2022-11-21T16:27:18;-0.20;99.90
39875;DHT22;25547;52.530;13.194;2022-11-21T16:29:44;-0.20;99.90
39875;DHT22;25547;52.530;13.194;2022-11-21T16:32:12;-0.10;99.90
39875;DHT22;25547;52.530;13.194;2022-11-21T16:34:40;-0.10;99.90
39875;DHT22;25547;52.530;13.194;2022-11-21T16:37:05;0.00;99.90
39875;DHT22;25547;52.530;13.194;2022-11-21T16:39:31;-0.10;99.90
39875;DHT22;25547;52.530;13.194;2022-11-21T16:41:57;-0.20;99.90
39875;DHT22;25547;52.530;13.194;2022-11-21T16:44:28;-0.20;99.90
39875;DHT22;25547;52.530;13.194;2022-11-21T16:46:55;-0.30;99.90
39875;DHT22;25547;52.530;13.194;2022-11-21T16:49:20;-0.40;99.90
39875;DHT22;25547;52.530;13.194;2022-11-21T16:51:49;-0.40;99.90
39875;DHT22;25547;52.530;13.194;2022-11-21T16:54:14;-0.40;99.90
39875;DHT22;25547;52.530;13.194;2022-11-21T16:56:40;-0.40;99.90
39875;DHT22;25547;52.530;13.194;2022-11-21T16:59:08;-0.50;99.90
39875;DHT22;25547;52.530;13.194;2022-11-21T17:01:33;-0.40;99.90
39875;DHT22;25547;52.530;13.194;2022-11-21T17:03:59;-0.40;99.90
39875;DHT22;25547;52.530;13.194;2022-11-21T17:06:28;-0.50;99.90
39875;DHT22;25547;52.530;13.194;2022-11-21T17:08:54;-0.50;99.90
39875;DHT22;25547;52.530;13.194;2022-11-21T17:13:50;-0.50;99.90
39875;DHT22;25547;52.530;13.194;2022-11-21T17:16:18;-0.50;99.90
39875;DHT22;25547;52.530;13.194;2022-11-21T17:18:46;-0.60;99.90
39875;DHT22;25547;52.530;13.194;2022-11-21T17:21:14;-0.60;99.90
39875;DHT22;25547;52.530;13.194;2022-11-21T17:23:44;-0.50;99.90
39875;DHT22;25547;52.530;13.194;2022-11-21T17:26:17;-0.50;99.90
39875;DHT22;25547;52.530;13.194;2022-11-21T17:28:43;-0.50;99.90
39875;DHT22;25547;52.530;13.194;2022-11-21T17:31:14;-0.50;99.90
39875;DHT22;25547;52.530;13.194;2022-11-21T17:33:40;-0.60;99.90
39875;DHT22;25547;52.530;13.194;2022-11-21T17:36:11;-0.60;99.90
39875;DHT22;25547;52.530;13.194;2022-11-21T17:38:37;-0.60;99.90
39875;DHT22;25547;52.530;13.194;2022-11-21T17:41:06;-0.70;99.90
39875;DHT22;25547;52.530;13.194;2022-11-21T17:43:32;-0.60;99.90
39875;DHT22;25547;52.530;13.194;2022-11-21T17:46:14;-0.60;99.90
39875;DHT22;25547;52.530;13.194;2022-11-21T17:48:44;-0.60;99.90
39875;DHT22;25547;52.530;13.194;2022-11-21T17:51:15;-0.60;99.90
39875;DHT22;25547;52.530;13.194;2022-11-21T17:53:42;-0.70;99.90
39875;DHT22;25547;52.530;13.194;2022-11-21T17:56:13;-0.60;99.90
39875;DHT22;25547;52.530;13.194;2022-11-21T17:58:39;-0.70;99.90
39875;DHT22;25547;52.530;13.194;2022-11-21T18:01:06;-0.70;99.90
39875;DHT22;25547;52.530;13.194;2022-11-21T18:03:35;-0.70;99.90
39875;DHT22;25547;52.530;13.194;2022-11-21T18:06:09;-0.80;99.90